Anahola, Hawaii
Current Conditions -  °F | °C
As of 1:53 PM on Thursday 27 Nov 2014 (Local Time) from PHLI Reporting Station
Broken Clouds Broken Clouds  
Wind Chill: 79°   Ceiling: 4300
Heat Index: 80°   Visibility: 10mi
Dew Point: 61°   Wind: 20mph
Humidity: 54%   Direction: 50°NE
Pressure: 30.05"   Gusts: NA
Location:  22.14°N, 159.31°W
Report Text: PHLI 272353Z 05017KT 10SM SCT035 BKN043 26/16 A3005 RMK AO2 SLP171 T02610161 10272 20233 56023 $
Loading
Personal Weather Stations






























Interactive Weather Map New forecast layout! Learn more

10-Day Weather Forecast

Advertisements
Track Severe Weather on mobile